Time;durP1;ratioP1;P1;durP2;ratioP2;P2;SDS_P1;SDS_P2;PMS_P1;PMS_P2;Temp;Humidity;BMP_temperature;BMP_pressure;BME280_temperature;BME280_humidity;BME280_pressure;Samples;Min_cycle;Max_cycle;Signal;HPM_P1;HPM_P2
2023/04/15 00:00:58;;;;;;;14.78;8.80;;;;;;;10.04;71.76;99530.19;1690997;84;25505;-47
2023/04/15 00:03:28;;;;;;;13.68;9.00;;;;;;;10.06;71.71;99529.30;1694372;84;25640;-49
2023/04/15 00:05:55;;;;;;;15.13;8.68;;;;;;;10.05;71.64;99535.84;1693833;84;25589;-49
2023/04/15 00:08:21;;;;;;;15.53;8.65;;;;;;;10.04;71.75;99532.32;1694585;84;27333;-48
2023/04/15 00:10:48;;;;;;;12.85;9.18;;;;;;;10.04;71.73;99533.67;1686947;84;25479;-49
2023/04/15 00:13:15;;;;;;;14.93;9.43;;;;;;;10.06;71.67;99536.05;1684613;85;25497;-50
2023/04/15 00:15:42;;;;;;;15.63;8.88;;;;;;;10.08;71.75;99529.80;1684572;85;25641;-51
2023/04/15 00:18:08;;;;;;;13.00;9.13;;;;;;;10.07;71.75;99528.20;1684658;85;25401;-49
2023/04/15 00:20:35;;;;;;;13.55;9.25;;;;;;;10.07;71.66;99533.60;1684607;85;27322;-50
2023/04/15 00:23:03;;;;;;;12.18;8.45;;;;;;;10.08;71.82;99530.58;1684537;85;25432;-48
2023/04/15 00:25:29;;;;;;;12.45;8.93;;;;;;;10.07;71.96;99524.14;1684607;85;25604;-48
2023/04/15 00:27:55;;;;;;;15.53;9.25;;;;;;;10.06;71.86;99524.71;1684579;85;25634;-51
2023/04/15 00:30:22;;;;;;;13.70;8.95;;;;;;;10.05;72.08;99519.63;1684598;85;25603;-49
2023/04/15 00:32:49;;;;;;;17.17;9.95;;;;;;;10.03;73.12;99522.65;1684567;85;27412;-49
2023/04/15 00:35:16;;;;;;;11.45;8.75;;;;;;;10.01;72.59;99520.84;1662694;85;33157;-49
2023/04/15 00:37:42;;;;;;;13.08;9.03;;;;;;;9.99;72.72;99518.99;1684633;85;25628;-48
2023/04/15 00:40:12;;;;;;;17.50;9.20;;;;;;;9.95;72.91;99515.36;1684566;85;27832;-48
2023/04/15 00:42:38;;;;;;;;;;;;;;;9.94;73.00;99517.03;1687145;85;25563;-51
2023/04/15 00:45:07;;;;;;;11.30;8.10;;;;;;;9.90;73.15;99521.73;1684641;85;27344;-48
2023/04/15 00:47:36;;;;;;;14.25;8.88;;;;;;;9.88;73.12;99519.13;1681274;85;25628;-49
2023/04/15 00:50:06;;;;;;;12.37;8.75;;;;;;;9.87;73.43;99504.02;1663098;85;25682;-49
2023/04/15 00:52:32;;;;;;;13.38;8.80;;;;;;;9.86;73.32;99519.45;1684698;85;25701;-51
2023/04/15 00:54:59;;;;;;;13.35;9.18;;;;;;;9.84;73.56;99504.66;1684580;85;25567;-48
2023/04/15 00:57:28;;;;;;;12.65;8.90;;;;;;;9.85;73.57;99506.27;1684580;85;27435;-49
2023/04/15 00:59:56;;;;;;;12.80;8.95;;;;;;;9.86;73.57;99509.22;1684461;85;25658;-49
2023/04/15 01:02:24;;;;;;;11.25;8.73;;;;;;;9.85;73.74;99508.97;1684630;85;25466;-49
2023/04/15 01:04:51;;;;;;;12.80;8.85;;;;;;;9.85;73.94;99511.66;1676106;83;26215;-49
2023/04/15 01:07:18;;;;;;;15.15;9.88;;;;;;;9.81;74.18;99510.73;1665602;85;25397;-48
2023/04/15 01:09:44;;;;;;;14.83;9.20;;;;;;;9.81;74.29;99510.73;1665458;85;27400;-48
2023/04/15 01:12:16;;;;;;;12.33;8.85;;;;;;;9.79;74.53;99513.76;1668277;85;25541;-49
2023/04/15 01:14:43;;;;;;;13.08;9.15;;;;;;;9.74;74.51;99509.88;1674941;84;25395;-50
2023/04/15 01:17:09;;;;;;;13.83;9.03;;;;;;;9.74;74.84;99516.63;1667929;85;26274;-48
2023/04/15 01:19:37;;;;;;;13.68;9.55;;;;;;;9.73;74.60;99515.81;1674880;84;32824;-51
2023/04/15 01:22:05;;;;;;;12.25;8.50;;;;;;;9.73;74.63;99509.06;1674597;85;27366;-49
2023/04/15 01:24:33;;;;;;;14.38;9.05;;;;;;;9.77;74.84;99517.88;1674364;85;25377;-49
2023/04/15 01:26:59;;;;;;;20.17;10.03;;;;;;;9.76;75.42;99512.27;1655390;85;25621;-51
2023/04/15 01:29:26;;;;;;;12.60;8.38;;;;;;;9.73;74.87;99506.93;1674556;85;25623;-49
2023/04/15 01:31:55;;;;;;;14.60;9.75;;;;;;;9.74;75.51;99501.78;1674785;85;25417;-51
2023/04/15 01:34:22;;;;;;;15.20;10.40;;;;;;;9.73;75.31;99513.12;1675353;84;27321;-49
2023/04/15 01:36:48;;;;;;;16.60;10.03;;;;;;;9.72;75.30;99508.85;1674661;85;25412;-50
2023/04/15 01:39:15;;;;;;;14.05;9.95;;;;;;;9.72;75.23;99511.55;1674800;85;25439;-50
2023/04/15 01:41:41;;;;;;;15.48;10.28;;;;;;;9.76;75.50;99508.21;1674946;84;25626;-49
2023/04/15 01:44:08;;;;;;;15.75;10.48;;;;;;;9.75;76.02;99510.66;1668134;85;25581;-50
2023/04/15 01:46:35;;;;;;;15.25;10.63;;;;;;;9.70;75.76;99515.14;1674876;84;27330;-49
2023/04/15 01:49:02;;;;;;;17.90;10.90;;;;;;;9.69;76.50;99509.48;1674713;84;25404;-49
2023/04/15 01:51:29;;;;;;;17.87;10.10;;;;;;;9.64;76.61;99506.17;1674781;84;25552;-49
2023/04/15 01:53:57;;;;;;;16.37;10.98;;;;;;;9.61;76.89;99510.30;1674660;85;25612;-49
2023/04/15 01:56:24;;;;;;;17.27;10.65;;;;;;;9.57;77.14;99505.85;1675340;84;25605;-49
2023/04/15 01:58:51;;;;;;;13.35;9.83;;;;;;;9.56;77.37;99502.37;1674720;85;27361;-49
2023/04/15 02:01:18;;;;;;;15.18;10.05;;;;;;;9.55;77.47;99504.82;1666907;85;25480;-49
2023/04/15 02:03:46;;;;;;;15.00;9.23;;;;;;;9.50;77.79;99503.10;1674932;84;25559;-52
2023/04/15 02:06:13;;;;;;;14.75;10.72;;;;;;;9.47;79.02;99508.36;1686037;84;25622;-49
2023/04/15 02:08:39;;;;;;;16.82;11.05;;;;;;;9.44;78.32;99497.63;1694487;84;25393;-49
2023/04/15 02:11:06;;;;;;;15.30;10.50;;;;;;;9.42;79.11;99509.30;1665185;84;27400;-52
2023/04/15 02:13:32;;;;;;;19.00;11.28;;;;;;;9.41;79.03;99502.88;1693275;84;25554;-50
2023/04/15 02:15:59;;;;;;;16.42;10.63;;;;;;;9.38;79.28;99507.55;1694595;84;25627;-49
2023/04/15 02:18:25;;;;;;;18.60;11.48;;;;;;;9.37;79.52;99508.69;1694485;84;25575;-52
2023/04/15 02:20:52;;;;;;;18.85;11.20;;;;;;;9.34;79.43;99501.44;1694091;84;25472;-49
2023/04/15 02:23:19;;;;;;;17.45;11.60;;;;;;;9.32;80.13;99502.89;1694256;84;27351;-49
2023/04/15 02:25:46;;;;;;;18.40;11.53;;;;;;;9.29;80.06;99497.56;1693795;84;25612;-51
2023/04/15 02:28:12;;;;;;;18.12;12.18;;;;;;;9.28;80.18;99501.39;1694374;84;25553;-52
2023/04/15 02:30:39;;;;;;;16.02;11.50;;;;;;;9.27;80.33;99499.01;1694533;84;25703;-49
2023/04/15 02:33:06;;;;;;;15.88;10.80;;;;;;;9.27;80.50;99503.84;1694641;84;25643;-49
2023/04/15 02:35:33;;;;;;;15.53;10.53;;;;;;;9.27;80.47;99504.41;1694653;84;27312;-49
2023/04/15 02:37:59;;;;;;;14.38;10.05;;;;;;;9.26;80.64;99504.16;1694560;84;25445;-49
2023/04/15 02:40:26;;;;;;;17.52;11.65;;;;;;;9.26;80.73;99504.97;1694648;84;25469;-49
2023/04/15 02:42:52;;;;;;;16.45;10.50;;;;;;;9.25;81.23;99499.89;1694418;84;25641;-50
2023/04/15 02:45:22;;;;;;;17.82;12.13;;;;;;;9.24;81.05;99503.13;1665287;84;32768;-49
2023/04/15 02:47:47;;;;;;;19.75;11.53;;;;;;;9.23;81.19;99502.91;1694502;84;27450;-49
2023/04/15 02:50:14;;;;;;;17.35;10.53;;;;;;;9.22;81.76;99501.87;1694352;84;25669;-51
2023/04/15 02:52:43;;;;;;;16.55;11.78;;;;;;;9.20;81.50;99500.05;1694635;84;25440;-49
2023/04/15 02:55:10;;;;;;;15.45;10.35;;;;;;;9.19;82.03;99501.94;1694595;84;25679;-49
2023/04/15 02:57:38;;;;;;;18.73;12.30;;;;;;;9.16;82.67;99502.59;1694615;84;25426;-49
2023/04/15 03:00:08;;;;;;;17.65;10.85;;;;;;;9.14;82.13;99500.75;1694626;84;27441;-50
2023/04/15 03:02:37;;;;;;;17.73;10.78;;;;;;;9.12;82.53;99496.23;1694441;84;27159;-49
2023/04/15 03:05:06;;;;;;;20.03;11.70;;;;;;;9.10;83.32;99506.55;1691794;84;25867;-50
2023/04/15 03:07:32;;;;;;;16.40;11.48;;;;;;;9.06;83.01;99502.36;1682658;85;25601;-52
2023/04/15 03:09:58;;;;;;;17.30;11.43;;;;;;;9.04;82.84;99499.19;1679938;85;25410;-51
2023/04/15 03:12:24;;;;;;;17.52;11.88;;;;;;;9.05;83.27;99497.28;1674834;85;29533;-49
2023/04/15 03:14:50;;;;;;;17.12;11.00;;;;;;;9.04;83.21;99504.58;1650839;85;25436;-49
2023/04/15 03:17:17;;;;;;;18.62;11.50;;;;;;;9.05;83.29;99507.50;1675023;84;25412;-49
2023/04/15 03:19:44;;;;;;;16.35;11.43;;;;;;;9.04;83.61;99500.53;1674885;85;27803;-48
2023/04/15 03:22:10;;;;;;;17.02;11.08;;;;;;;9.04;83.48;99499.19;1674535;85;25473;-49
2023/04/15 03:24:36;;;;;;;19.52;11.95;;;;;;;9.05;83.82;99508.85;1674610;85;27352;-49
2023/04/15 03:27:02;;;;;;;16.90;12.00;;;;;;;9.04;84.20;99501.07;1645349;86;25514;-50
2023/04/15 03:29:28;;;;;;;18.73;11.50;;;;;;;9.03;83.71;99510.30;1669781;85;25478;-48
2023/04/15 03:31:55;;;;;;;17.40;10.93;;;;;;;9.03;83.91;99508.94;1675230;85;25751;-50
2023/04/15 03:34:21;;;;;;;17.65;11.05;;;;;;;9.02;84.02;99509.48;1674865;85;25604;-50
2023/04/15 03:36:47;;;;;;;16.48;11.38;;;;;;;9.03;84.01;99505.68;1674858;85;27362;-52
2023/04/15 03:39:14;;;;;;;17.12;11.10;;;;;;;9.05;84.20;99509.41;1674778;84;33106;-48
2023/04/15 03:41:40;;;;;;;16.75;10.63;;;;;;;9.05;84.14;99504.02;1674560;85;25470;-50
2023/04/15 03:44:06;;;;;;;14.80;10.58;;;;;;;9.05;84.08;99506.72;1675046;84;25670;-49
2023/04/15 03:46:33;;;;;;;18.32;11.08;;;;;;;9.05;83.94;99508.06;1675773;85;25623;-49
2023/04/15 03:48:59;;;;;;;16.75;10.75;;;;;;;9.07;84.01;99511.23;1674831;85;27492;-50
2023/04/15 03:51:25;;;;;;;19.57;11.93;;;;;;;9.09;84.25;99513.87;1675423;85;25608;-49
2023/04/15 03:53:51;;;;;;;17.92;10.90;;;;;;;9.11;84.24;99513.55;1674805;84;25643;-49
2023/04/15 03:56:18;;;;;;;16.48;10.82;;;;;;;9.12;84.03;99509.72;1675198;85;25650;-49
2023/04/15 03:58:44;;;;;;;16.73;10.72;;;;;;;9.13;84.40;99512.11;1674869;85;25403;-52
2023/04/15 04:01:11;;;;;;;19.65;11.88;;;;;;;9.13;84.59;99518.06;1674895;85;29538;-50
2023/04/15 04:03:37;;;;;;;15.35;10.90;;;;;;;9.11;84.38;99521.08;1674618;85;27213;-50
2023/04/15 04:06:04;;;;;;;16.48;11.00;;;;;;;9.12;84.35;99517.81;1674694;84;25616;-48
2023/04/15 04:08:30;;;;;;;19.90;11.75;;;;;;;9.11;84.34;99522.43;1674763;85;25724;-50
2023/04/15 04:10:56;;;;;;;18.25;11.65;;;;;;;9.11;84.52;99521.08;1674806;84;25572;-49
2023/04/15 04:13:23;;;;;;;19.87;12.15;;;;;;;9.13;84.77;99526.95;1628523;85;27256;-49
2023/04/15 04:15:49;;;;;;;20.75;11.50;;;;;;;9.11;84.67;99517.59;1651281;84;25475;-49
2023/04/15 04:18:15;;;;;;;16.05;10.15;;;;;;;9.10;84.85;99525.44;1674960;84;25634;-49
2023/04/15 04:20:42;;;;;;;14.40;10.70;;;;;;;9.10;85.21;99520.83;1674899;84;25673;-49
2023/04/15 04:23:08;;;;;;;15.95;10.10;;;;;;;9.07;85.21;99516.62;1675055;84;25187;-49
2023/04/15 04:25:34;;;;;;;17.05;10.68;;;;;;;9.05;85.61;99525.03;1674896;85;28071;-49
2023/04/15 04:28:00;;;;;;;15.98;10.58;;;;;;;9.05;85.38;99517.51;1674907;84;25824;-50
2023/04/15 04:30:26;;;;;;;17.10;11.60;;;;;;;9.06;85.78;99525.28;1674892;84;25407;-49
2023/04/15 04:32:53;;;;;;;14.47;10.75;;;;;;;9.04;85.74;99528.86;1675417;85;27806;-50
2023/04/15 04:35:19;;;;;;;17.70;11.40;;;;;;;9.03;86.09;99522.44;1675030;84;25656;-49
2023/04/15 04:37:45;;;;;;;20.60;11.25;;;;;;;9.00;86.19;99531.16;1674782;85;27380;-49
2023/04/15 04:40:13;;;;;;;18.07;11.05;;;;;;;8.98;86.56;99527.42;1674716;84;25580;-49
2023/04/15 04:42:39;;;;;;;17.25;11.55;;;;;;;8.96;86.68;99521.55;1674813;85;25654;-51
2023/04/15 04:45:08;;;;;;;17.52;11.15;;;;;;;8.94;86.85;99521.87;1667724;85;25781;-49
2023/04/15 04:47:34;;;;;;;15.75;10.68;;;;;;;8.94;87.46;99522.43;1675175;84;25643;-50
2023/04/15 04:50:02;;;;;;;17.82;11.28;;;;;;;8.92;87.49;99522.74;1675028;85;27378;-49
2023/04/15 04:52:29;;;;;;;17.62;10.78;;;;;;;8.91;87.80;99523.06;1674865;84;25456;-49
2023/04/15 04:54:55;;;;;;;13.45;9.60;;;;;;;8.90;87.77;99524.94;1675191;84;25581;-49
2023/04/15 04:57:22;;;;;;;15.45;10.53;;;;;;;8.89;88.44;99519.89;1675060;84;25902;-51
2023/04/15 04:59:48;;;;;;;18.35;11.03;;;;;;;8.86;88.08;99521.30;1674765;85;25639;-48
2023/04/15 05:02:14;;;;;;;16.62;10.25;;;;;;;8.86;88.49;99528.61;1674915;85;27429;-52
2023/04/15 05:04:41;;;;;;;16.52;10.45;;;;;;;8.85;88.50;99525.66;1666921;85;25763;-48
2023/04/15 05:07:07;;;;;;;16.77;10.93;;;;;;;8.84;88.70;99520.83;1688873;84;25541;-48
2023/04/15 05:09:35;;;;;;;18.15;11.50;;;;;;;8.83;89.17;99519.80;1693611;84;25562;-49
2023/04/15 05:12:05;;;;;;;16.45;10.18;;;;;;;8.84;88.95;99525.44;1694541;84;25600;-48
2023/04/15 05:14:32;;;;;;;18.17;11.15;;;;;;;8.86;89.73;99523.21;1694550;84;27343;-47
2023/04/15 05:16:58;;;;;;;17.07;11.08;;;;;;;8.84;89.20;99523.52;1694401;84;25441;-49
2023/04/15 05:19:24;;;;;;;15.78;9.88;;;;;;;8.84;89.23;99528.13;1694522;84;25613;-48
2023/04/15 05:21:51;;;;;;;20.27;11.08;;;;;;;8.84;89.47;99528.13;1694591;84;25623;-47
2023/04/15 05:24:17;;;;;;;19.12;11.48;;;;;;;8.81;90.01;99525.50;1694511;84;25482;-48
2023/04/15 05:26:43;;;;;;;16.80;10.98;;;;;;;8.84;89.95;99527.57;1693908;84;27863;-47
2023/04/15 05:29:09;;;;;;;18.02;11.38;;;;;;;8.85;89.92;99526.45;1694402;84;25584;-48
2023/04/15 05:31:36;;;;;;;15.40;9.98;;;;;;;8.85;90.13;99527.79;1693969;84;25468;-48
2023/04/15 05:34:04;;;;;;;16.15;10.43;;;;;;;8.88;90.51;99523.69;1694459;84;25630;-47
2023/04/15 05:36:30;;;;;;;14.87;9.73;;;;;;;8.88;90.56;99525.81;1694312;84;25597;-47
2023/04/15 05:38:57;;;;;;;15.05;10.43;;;;;;;8.87;90.40;99527.48;1694492;84;27391;-48
2023/04/15 05:41:24;;;;;;;17.20;10.32;;;;;;;8.88;90.54;99527.16;1694415;84;25582;-47
2023/04/15 05:43:50;;;;;;;15.13;10.15;;;;;;;8.91;90.64;99529.80;1694556;84;25389;-47
2023/04/15 05:46:16;;;;;;;14.58;9.43;;;;;;;8.92;90.57;99534.88;1693530;84;25600;-48
2023/04/15 05:48:42;;;;;;;17.27;10.70;;;;;;;8.91;90.70;99529.23;1694529;84;25408;-48
2023/04/15 05:51:09;;;;;;;14.98;9.90;;;;;;;8.92;90.86;99532.72;1694262;84;28044;-48
2023/04/15 05:53:36;;;;;;;16.75;10.60;;;;;;;8.91;90.67;99539.23;1664149;84;25525;-47
2023/04/15 05:56:04;;;;;;;14.63;9.50;;;;;;;8.92;90.65;99534.88;1694358;84;25561;-47
2023/04/15 05:58:30;;;;;;;13.93;9.45;;;;;;;8.91;90.97;99535.19;1664843;84;26787;-47
2023/04/15 06:00:57;;;;;;;17.30;9.63;;;;;;;8.91;92.38;99539.23;1694417;84;25555;-47
2023/04/15 06:03:24;;;;;;;15.25;9.45;;;;;;;8.86;91.38;99538.83;1693790;84;27964;-47
2023/04/15 06:05:50;;;;;;;19.90;11.83;;;;;;;8.86;90.98;99537.48;1692348;84;25477;-46
2023/04/15 06:08:16;;;;;;;15.05;10.43;;;;;;;8.85;91.30;99536.45;1678926;85;29913;-47
2023/04/15 06:10:43;;;;;;;16.60;10.35;;;;;;;8.86;91.70;99542.88;1675006;84;26330;-46
2023/04/15 06:13:09;;;;;;;15.80;10.45;;;;;;;8.83;91.42;99535.41;1675989;84;25596;-49
2023/04/15 06:15:36;;;;;;;13.58;10.20;;;;;;;8.85;91.53;99550.72;1674085;84;27504;-49
2023/04/15 06:18:04;;;;;;;15.40;9.53;;;;;;;8.85;91.67;99548.02;1675770;84;25469;-46
2023/04/15 06:20:30;;;;;;;16.25;9.63;;;;;;;8.85;91.78;99548.02;1674833;85;25579;-48
2023/04/15 06:22:57;;;;;;;15.03;9.20;;;;;;;8.86;91.71;99552.31;1675898;84;25499;-51
2023/04/15 06:25:24;;;;;;;17.85;10.00;;;;;;;8.85;92.09;99551.28;1675242;84;25474;-48
2023/04/15 06:27:50;;;;;;;14.38;10.03;;;;;;;8.85;91.71;99555.32;1667316;85;27209;-46
2023/04/15 06:30:16;;;;;;;14.83;8.55;;;;;;;8.95;91.77;99565.81;1655684;85;33385;-48
2023/04/15 06:32:42;;;;;;;13.65;9.88;;;;;;;8.95;91.77;99565.81;1674967;85;25592;-47
2023/04/15 06:35:09;;;;;;;12.15;9.03;;;;;;;8.85;91.99;99553.41;1674668;85;25683;-48
2023/04/15 06:37:35;;;;;;;12.93;9.00;;;;;;;8.85;92.05;99553.98;1675515;84;25422;-47
2023/04/15 06:40:03;;;;;;;13.75;9.43;;;;;;;8.83;92.03;99555.63;1675267;84;27399;-51
2023/04/15 06:42:30;;;;;;;13.68;9.05;;;;;;;8.82;92.24;99560.80;1674807;84;25702;-49
2023/04/15 06:44:57;;;;;;;13.48;8.90;;;;;;;8.81;92.11;99555.16;1675015;84;25616;-46
2023/04/15 06:47:23;;;;;;;12.13;8.85;;;;;;;8.82;92.24;99558.64;1675624;84;25682;-47
2023/04/15 06:49:49;;;;;;;12.30;9.10;;;;;;;8.82;93.09;99551.91;1675033;85;25634;-46
2023/04/15 06:52:16;;;;;;;11.97;8.03;;;;;;;8.81;92.74;99565.95;1674930;85;27401;-47
2023/04/15 06:54:43;;;;;;;11.33;8.70;;;;;;;8.78;92.77;99563.88;1675012;84;27252;-49
2023/04/15 06:57:09;;;;;;;13.85;8.83;;;;;;;8.77;92.66;99566.34;1674657;84;25608;-48
2023/04/15 06:59:36;;;;;;;11.78;8.85;;;;;;;8.77;92.79;99567.13;1675321;84;25632;-46
2023/04/15 07:02:02;;;;;;;12.88;9.03;;;;;;;8.78;92.76;99562.53;1674922;85;25655;-46
2023/04/15 07:04:28;;;;;;;15.80;9.03;;;;;;;8.78;92.95;99572.78;1674862;84;27334;-49
2023/04/15 07:06:55;;;;;;;11.20;8.38;;;;;;;8.78;92.96;99567.38;1683452;84;25491;-46
2023/04/15 07:09:24;;;;;;;12.80;8.55;;;;;;;8.78;93.47;99571.44;1694496;84;25415;-47
2023/04/15 07:11:51;;;;;;;12.15;8.18;;;;;;;8.80;93.21;99576.48;1694486;84;25616;-46
2023/04/15 07:14:17;;;;;;;12.73;8.88;;;;;;;8.81;93.30;99578.64;1664686;84;25582;-46
2023/04/15 07:16:43;;;;;;;13.53;8.85;;;;;;;8.83;93.43;99579.13;1694502;84;29634;-46
2023/04/15 07:19:10;;;;;;;11.08;8.05;;;;;;;8.86;93.79;99579.28;1694536;84;33398;-47
2023/04/15 07:21:37;;;;;;;11.38;7.97;;;;;;;8.87;93.99;99580.06;1694611;84;25600;-49
2023/04/15 07:24:05;;;;;;;9.90;6.97;;;;;;;8.88;93.76;99578.97;1694493;84;25629;-46
2023/04/15 07:26:31;;;;;;;10.32;7.95;;;;;;;8.91;93.98;99577.00;1694467;84;25481;-48
2023/04/15 07:28:58;;;;;;;11.97;8.05;;;;;;;8.91;93.73;99581.83;1694550;84;27297;-46
2023/04/15 07:31:24;;;;;;;9.88;7.03;;;;;;;8.95;94.03;99580.08;1694516;83;25559;-46
2023/04/15 07:33:50;;;;;;;10.40;7.47;;;;;;;8.95;94.00;99577.38;1694579;84;25414;-49
2023/04/15 07:36:17;;;;;;;9.00;6.80;;;;;;;8.97;94.19;99578.41;1665158;84;26309;-46
2023/04/15 07:38:44;;;;;;;10.88;7.95;;;;;;;8.98;94.32;99580.02;1694585;84;25421;-47
2023/04/15 07:41:10;;;;;;;15.48;7.17;;;;;;;8.97;94.06;99581.93;1694561;84;27460;-46
2023/04/15 07:43:37;;;;;;;9.68;7.15;;;;;;;9.01;94.27;99581.27;1694095;84;25425;-46
2023/04/15 07:46:04;;;;;;;9.85;6.33;;;;;;;9.05;94.24;99574.94;1694594;84;25643;-45
2023/04/15 07:48:31;;;;;;;7.22;5.85;;;;;;;9.05;94.64;99576.29;1665282;84;25598;-47
2023/04/15 07:50:59;;;;;;;12.30;6.17;;;;;;;9.06;94.29;99575.19;1665726;84;25425;-46
2023/04/15 07:53:26;;;;;;;8.75;6.90;;;;;;;9.05;94.17;99572.24;1694627;84;27331;-46
2023/04/15 07:55:52;;;;;;;8.93;7.35;;;;;;;9.07;94.32;99577.33;1694505;84;25425;-46
2023/04/15 07:58:19;;;;;;;8.90;7.80;;;;;;;9.07;94.40;99561.14;1694614;84;25573;-45
2023/04/15 08:00:46;;;;;;;8.73;6.40;;;;;;;9.07;94.06;99574.63;1694524;84;25626;-45
2023/04/15 08:03:12;;;;;;;7.20;5.47;;;;;;;9.09;94.19;99576.45;1694414;84;25572;-45
2023/04/15 08:05:38;;;;;;;10.30;6.30;;;;;;;9.10;94.04;99577.48;1694525;84;27339;-46
2023/04/15 08:08:05;;;;;;;10.03;6.95;;;;;;;9.12;94.45;99578.52;1694400;84;27225;-50
2023/04/15 08:10:31;;;;;;;12.50;10.48;;;;;;;9.15;94.38;99580.03;1694501;84;25631;-46
2023/04/15 08:12:58;;;;;;;12.47;11.18;;;;;;;9.19;94.49;99582.88;1693619;84;25616;-44
2023/04/15 08:15:25;;;;;;;13.50;12.35;;;;;;;9.23;94.95;99579.80;1694504;84;25563;-45
2023/04/15 08:17:52;;;;;;;6.67;5.20;;;;;;;9.26;94.62;99580.53;1694601;84;28116;-46
2023/04/15 08:20:19;;;;;;;26.95;25.00;;;;;;;9.29;94.62;99581.22;1694310;84;25844;-47
2023/04/15 08:22:50;;;;;;;17.10;15.45;;;;;;;9.29;94.38;99577.73;1694577;84;25391;-46
2023/04/15 08:25:14;;;;;;;23.15;21.37;;;;;;;9.31;94.36;99574.16;1694176;84;25809;-46
2023/04/15 08:27:40;;;;;;;6.58;4.60;;;;;;;9.33;94.38;99578.14;1694657;84;25603;-46
2023/04/15 08:30:10;;;;;;;7.70;5.78;;;;;;;9.32;94.19;99568.45;1665154;84;27551;-48
2023/04/15 08:32:37;;;;;;;21.73;20.00;;;;;;;9.35;94.21;99580.52;1694149;84;25617;-47
2023/04/15 08:35:06;;;;;;;67.00;62.40;;;;;;;9.39;94.50;99584.16;1694526;84;25718;-46
2023/04/15 08:37:32;;;;;;;13.18;12.05;;;;;;;9.44;94.50;99591.31;1694527;84;25640;-47
2023/04/15 08:39:59;;;;;;;9.70;6.53;;;;;;;9.44;94.23;99585.92;1694550;84;25398;-50
2023/04/15 08:42:33;;;;;;;11.15;10.15;;;;;;;9.47;94.33;99585.29;1694582;84;28364;-46
2023/04/15 08:45:03;;;;;;;8.85;5.42;;;;;;;9.52;94.38;99585.12;1691306;84;25488;-46
2023/04/15 08:47:30;;;;;;;6.50;5.08;;;;;;;9.53;94.50;99590.20;1692848;84;25469;-43
2023/04/15 08:49:59;;;;;;;8.23;5.70;;;;;;;9.56;94.48;99588.77;1676918;84;26173;-50
2023/04/15 08:52:31;;;;;;;7.53;4.80;;;;;;;9.60;94.60;99586.22;1677374;84;25506;-48
2023/04/15 08:54:59;;;;;;;35.45;32.98;;;;;;;9.62;94.30;99586.15;1676782;84;27416;-46
2023/04/15 08:57:28;;;;;;;7.47;5.92;;;;;;;9.66;94.63;99595.19;1677329;84;25654;-46
2023/04/15 08:59:56;;;;;;;8.07;5.60;;;;;;;9.74;94.95;99592.25;1677840;84;25499;-48
2023/04/15 09:02:25;;;;;;;30.75;28.73;;;;;;;9.80;94.95;99588.81;1666884;84;26247;-46
2023/04/15 09:04:52;;;;;;;73.43;68.53;;;;;;;9.81;94.22;99589.06;1644161;84;25587;-46
2023/04/15 09:07:19;;;;;;;40.45;37.78;;;;;;;9.82;94.18;99594.69;1677857;84;27349;-45
2023/04/15 09:09:46;;;;;;;8.30;6.17;;;;;;;9.83;94.18;99590.31;1676059;85;25648;-49
2023/04/15 09:12:13;;;;;;;8.45;7.37;;;;;;;9.84;94.07;99595.97;1642155;85;25610;-46
2023/04/15 09:14:41;;;;;;;6.05;4.40;;;;;;;9.83;93.96;99593.58;1671867;85;26054;-47
2023/04/15 09:17:10;;;;;;;6.00;4.78;;;;;;;9.83;93.73;99590.88;1685008;85;25553;-46
2023/04/15 09:19:37;;;;;;;;;;;;;;;9.81;93.89;99596.60;1645990;86;27215;-46
2023/04/15 09:22:04;;;;;;;9.10;4.70;;;;;;;9.79;93.54;99592.62;1648251;85;33177;-46
2023/04/15 09:24:41;;;;;;;6.25;3.98;;;;;;;9.80;93.71;99595.00;1649928;85;25482;-45
2023/04/15 09:27:07;;;;;;;5.37;4.53;;;;;;;9.76;93.67;99593.28;1664616;85;25628;-50
2023/04/15 09:29:34;;;;;;;8.38;4.87;;;;;;;9.73;93.74;99591.44;1651045;85;25567;-44
2023/04/15 09:32:14;;;;;;;6.33;4.80;;;;;;;9.77;94.11;99599.69;1674923;85;27410;-45
2023/04/15 09:34:40;;;;;;;4.90;4.33;;;;;;;9.82;94.78;99590.06;1678882;85;25581;-45
2023/04/15 09:37:09;;;;;;;6.95;4.65;;;;;;;9.89;94.95;99599.03;1678658;85;25581;-44
2023/04/15 09:39:48;;;;;;;5.78;4.55;;;;;;;9.94;94.74;99601.56;1661730;85;25689;-45
2023/04/15 09:42:22;;;;;;;5.53;4.40;;;;;;;9.98;94.83;99598.47;1678987;85;25575;-44
2023/04/15 09:44:44;;;;;;;7.00;4.45;;;;;;;10.00;94.28;99601.64;1681205;84;27354;-45
2023/04/15 09:47:30;;;;;;;5.67;4.53;;;;;;;10.04;94.28;99595.81;1675420;85;25685;-46
2023/04/15 09:49:59;;;;;;;6.37;5.03;;;;;;;10.05;94.11;99602.03;1654034;86;25651;-44
2023/04/15 09:52:27;;;;;;;7.20;4.33;;;;;;;10.08;94.66;99607.59;1657510;85;25597;-48
2023/04/15 09:54:57;;;;;;;6.60;4.80;;;;;;;10.11;94.31;99606.13;1659658;85;25427;-43
2023/04/15 09:57:24;;;;;;;4.70;3.45;;;;;;;10.12;94.07;99609.66;1657477;85;28137;-46
2023/04/15 09:59:51;;;;;;;5.65;4.35;;;;;;;10.16;94.46;99613.28;1663471;85;25500;-46
2023/04/15 10:02:20;;;;;;;5.22;4.37;;;;;;;10.16;94.45;99608.66;1629710;85;25482;-46
2023/04/15 10:04:48;;;;;;;5.15;4.37;;;;;;;10.15;93.65;99615.73;1679432;85;25678;-45
2023/04/15 10:07:19;;;;;;;5.85;4.60;;;;;;;10.14;93.91;99609.55;1657213;85;25774;-46
2023/04/15 10:09:48;;;;;;;5.85;4.97;;;;;;;10.11;93.53;99619.64;1676037;85;27348;-45
2023/04/15 10:12:19;;;;;;;6.37;4.27;;;;;;;10.08;93.62;99609.50;1670377;85;25624;-49
2023/04/15 10:14:51;;;;;;;5.87;4.58;;;;;;;10.09;93.77;99612.42;1671011;85;25604;-44
2023/04/15 10:17:21;;;;;;;5.92;4.62;;;;;;;10.07;93.45;99613.31;1645918;86;26270;-45
2023/04/15 10:19:52;;;;;;;6.03;4.60;;;;;;;10.03;93.60;99609.11;1604325;88;25643;-47
2023/04/15 10:22:19;;;;;;;4.95;4.10;;;;;;;10.06;94.11;99611.17;1673842;85;27299;-45
2023/04/15 10:24:48;;;;;;;8.38;4.53;;;;;;;10.08;94.32;99610.86;1649968;85;25665;-45
2023/04/15 10:27:17;;;;;;;6.78;6.17;;;;;;;10.10;94.29;99610.75;1673901;85;25633;-46
2023/04/15 10:29:47;;;;;;;6.97;4.55;;;;;;;10.15;94.90;99608.45;1671369;85;26241;-47
2023/04/15 10:32:20;;;;;;;6.25;4.35;;;;;;;10.16;94.52;99615.42;1652742;86;25566;-46
2023/04/15 10:34:50;;;;;;;5.40;4.00;;;;;;;10.24;95.27;99615.95;1644844;86;27071;-46
2023/04/15 10:37:37;;;;;;;7.85;4.20;;;;;;;10.25;94.80;99614.06;1652010;86;25665;-47
2023/04/15 10:40:27;;;;;;;5.53;4.45;;;;;;;10.27;94.92;99614.53;1674104;85;25417;-45
2023/04/15 10:43:03;;;;;;;6.60;4.12;;;;;;;10.36;94.85;99611.83;1650860;85;25773;-45
2023/04/15 10:45:35;;;;;;;5.70;4.53;;;;;;;10.42;95.08;99614.03;1671561;85;25606;-45
2023/04/15 10:48:06;;;;;;;11.45;4.60;;;;;;;10.45;95.11;99611.22;1672407;85;27624;-46
2023/04/15 10:50:33;;;;;;;4.72;3.37;;;;;;;10.47;94.75;99608.98;1675794;85;25504;-46
2023/04/15 10:53:04;;;;;;;5.80;4.33;;;;;;;10.47;94.56;99607.63;1646947;86;25553;-47
2023/04/15 10:55:34;;;;;;;7.05;5.03;;;;;;;10.49;94.46;99611.36;1674126;85;25595;-45
2023/04/15 10:58:02;;;;;;;4.70;3.75;;;;;;;10.54;94.63;99615.23;1672576;85;25577;-46
2023/04/15 11:00:32;;;;;;;5.42;3.98;;;;;;;10.55;94.65;99612.20;1672608;85;27345;-46
2023/04/15 11:03:07;;;;;;;7.37;4.45;;;;;;;10.53;94.15;99612.31;1647040;86;25612;-46
2023/04/15 11:05:52;;;;;;;6.28;3.67;;;;;;;10.57;94.18;99613.23;1652772;86;25401;-46
2023/04/15 11:08:22;;;;;;;5.97;3.65;;;;;;;10.56;93.84;99610.31;1677391;85;25687;-46
2023/04/15 11:10:51;;;;;;;6.58;4.10;;;;;;;10.56;93.83;99614.38;1671812;85;25468;-47
2023/04/15 11:13:22;;;;;;;5.08;4.10;;;;;;;10.57;94.04;99618.11;1691012;84;27511;-45
2023/04/15 11:15:50;;;;;;;4.10;3.42;;;;;;;10.62;94.50;99609.81;1690814;84;25415;-46
2023/04/15 11:18:25;;;;;;;6.85;4.58;;;;;;;10.63;93.80;99616.79;1690977;84;25637;-47
2023/04/15 11:20:58;;;;;;;3.85;3.47;;;;;;;10.62;93.53;99615.76;1690856;84;26171;-46
2023/04/15 11:23:43;;;;;;;5.58;4.25;;;;;;;10.60;93.46;99613.95;1656760;85;25493;-44
2023/04/15 11:26:14;;;;;;;5.78;3.83;;;;;;;10.61;93.60;99613.63;1663376;84;27353;-45
2023/04/15 11:28:44;;;;;;;6.03;4.60;;;;;;;10.59;93.36;99610.45;1672361;85;25453;-45
2023/04/15 11:31:17;;;;;;;6.70;3.90;;;;;;;10.60;93.22;99617.44;1683523;85;25458;-45
2023/04/15 11:33:57;;;;;;;7.00;4.72;;;;;;;10.59;93.47;99614.52;1683551;85;25695;-49